createdAt,value
2023-04-14T00:11:37.269Z,99624.06
2023-04-14T00:26:40.461Z,99631.97
2023-04-14T00:41:43.571Z,99632.80
2023-04-14T00:56:47.728Z,99632.05
2023-04-14T01:12:13.993Z,99628.23
2023-04-14T01:27:46.565Z,99626.66
2023-04-14T01:42:59.751Z,99623.92
2023-04-14T01:58:05.563Z,99627.02
2023-04-14T02:13:10.868Z,99616.97
2023-04-14T02:28:19.512Z,99621.94
2023-04-14T02:43:30.537Z,99629.99
2023-04-14T02:58:34.926Z,99640.20
2023-04-14T03:13:41.452Z,99656.50
2023-04-14T03:28:47.429Z,99667.31
2023-04-14T03:43:54.884Z,99681.32
2023-04-14T03:59:01.518Z,99686.54
2023-04-14T04:14:07.308Z,99690.08
2023-04-14T04:29:12.445Z,99702.37
2023-04-14T04:44:15.814Z,99709.28
2023-04-14T04:59:19.029Z,99712.00
2023-04-14T05:14:22.300Z,99712.15
2023-04-14T05:29:25.744Z,99722.94
2023-04-14T05:44:28.856Z,99733.91
2023-04-14T05:59:32.173Z,99735.36
2023-04-14T06:14:35.712Z,99743.32
2023-04-14T06:29:38.970Z,99752.64
2023-04-14T06:44:42.238Z,99746.30
2023-04-14T06:59:46.782Z,99746.35
2023-04-14T07:14:52.844Z,99741.53
2023-04-14T07:29:56.087Z,99745.20
2023-04-14T07:44:59.205Z,99756.69
2023-04-14T08:00:03.048Z,99752.20
2023-04-14T08:15:15.769Z,99754.91
2023-04-14T08:30:19.101Z,99753.13
2023-04-14T08:45:22.279Z,99750.58
2023-04-14T09:00:25.773Z,99751.84
2023-04-14T09:15:29.657Z,99754.13
2023-04-14T09:30:33.224Z,99762.16
2023-04-14T09:45:45.787Z,99761.09
2023-04-14T10:00:52.566Z,99765.89
2023-04-14T10:15:55.779Z,99757.46
2023-04-14T10:31:01.646Z,99748.14
2023-04-14T10:46:07.552Z,99746.59
2023-04-14T11:01:32.514Z,99732.91
2023-04-14T11:16:44.680Z,99727.75
2023-04-14T11:32:05.914Z,99708.89
2023-04-14T11:47:09.104Z,99693.99
2023-04-14T12:02:17.914Z,99682.41
2023-04-14T12:17:21.880Z,99668.70
2023-04-14T12:32:26.028Z,99654.53
2023-04-14T12:47:30.271Z,99635.63
2023-04-14T13:02:33.714Z,99617.39
2023-04-14T13:17:37.226Z,99604.95
2023-04-14T13:32:40.524Z,99597.41
2023-04-14T13:47:48.472Z,99591.88
2023-04-14T14:02:52.468Z,99588.84
2023-04-14T14:17:55.717Z,99591.20
2023-04-14T14:32:58.998Z,99584.19
2023-04-14T14:48:02.522Z,99595.38
2023-04-14T15:03:06.849Z,99592.78
2023-04-14T15:18:10.779Z,99587.50
2023-04-14T15:33:13.920Z,99596.81
2023-04-14T15:48:17.093Z,99590.87
2023-04-14T16:03:20.445Z,99597.17
2023-04-14T16:18:23.700Z,99604.78
2023-04-14T16:33:27.826Z,99601.15
2023-04-14T16:48:31.500Z,99600.92
2023-04-14T17:03:35.493Z,99608.12
2023-04-14T17:18:39.258Z,99626.30
2023-04-14T17:33:44.174Z,99655.45
2023-04-14T17:48:47.527Z,99662.86
2023-04-14T18:03:51.694Z,99671.08
2023-04-14T18:18:55.514Z,99681.20
2023-04-14T18:34:05.879Z,99696.05
2023-04-14T18:49:10.917Z,99706.77
2023-04-14T19:04:17.208Z,99715.06
2023-04-14T19:19:21.117Z,99712.17
2023-04-14T19:34:24.377Z,99714.59
2023-04-14T19:49:28.570Z,99719.48
2023-04-14T20:04:32.276Z,99722.75
2023-04-14T20:19:35.632Z,99727.01
2023-04-14T20:34:39.361Z,99717.40
2023-04-14T20:49:43.019Z,99716.70
2023-04-14T21:04:46.572Z,99721.48
2023-04-14T21:19:49.939Z,99734.45
2023-04-14T21:34:53.139Z,99733.30
2023-04-14T21:49:56.606Z,99729.04
2023-04-14T22:04:59.673Z,99726.66
2023-04-14T22:20:02.816Z,99720.14
2023-04-14T22:35:06.171Z,99716.13
2023-04-14T22:50:09.571Z,99717.80
2023-04-14T23:05:13.717Z,99714.22
2023-04-14T23:20:17.026Z,99710.19
2023-04-14T23:35:20.125Z,99708.98
2023-04-14T23:50:23.218Z,99708.15
